sensor_id;sensor_type;location;lat;lon;timestamp;P1;durP1;ratioP1;P2;durP2;ratioP2
78856;SDS011;68207;50.078;19.936;2023-04-15T00:01:46;2.40;;;1.30;;
78856;SDS011;68207;50.078;19.936;2023-04-15T00:04:11;2.20;;;1.40;;
78856;SDS011;68207;50.078;19.936;2023-04-15T00:06:37;2.20;;;1.80;;
78856;SDS011;68207;50.078;19.936;2023-04-15T00:09:03;2.20;;;1.50;;
78856;SDS011;68207;50.078;19.936;2023-04-15T00:11:29;1.30;;;1.10;;
78856;SDS011;68207;50.078;19.936;2023-04-15T00:13:54;1.90;;;1.30;;
78856;SDS011;68207;50.078;19.936;2023-04-15T00:16:20;2.30;;;1.50;;
78856;SDS011;68207;50.078;19.936;2023-04-15T00:18:45;1.80;;;1.30;;
78856;SDS011;68207;50.078;19.936;2023-04-15T00:21:11;1.90;;;1.30;;
78856;SDS011;68207;50.078;19.936;2023-04-15T00:23:36;2.30;;;1.60;;
78856;SDS011;68207;50.078;19.936;2023-04-15T00:26:01;2.20;;;1.60;;
78856;SDS011;68207;50.078;19.936;2023-04-15T00:28:27;1.80;;;1.40;;
78856;SDS011;68207;50.078;19.936;2023-04-15T00:30:52;1.80;;;1.40;;
78856;SDS011;68207;50.078;19.936;2023-04-15T00:33:17;1.90;;;1.30;;
78856;SDS011;68207;50.078;19.936;2023-04-15T00:35:42;2.00;;;1.30;;
78856;SDS011;68207;50.078;19.936;2023-04-15T00:38:08;2.00;;;1.30;;
78856;SDS011;68207;50.078;19.936;2023-04-15T00:40:33;1.90;;;1.60;;
78856;SDS011;68207;50.078;19.936;2023-04-15T00:42:59;2.40;;;1.60;;
78856;SDS011;68207;50.078;19.936;2023-04-15T00:45:25;2.00;;;1.30;;
78856;SDS011;68207;50.078;19.936;2023-04-15T00:47:52;2.10;;;1.40;;
78856;SDS011;68207;50.078;19.936;2023-04-15T00:50:17;2.50;;;1.80;;
78856;SDS011;68207;50.078;19.936;2023-04-15T00:52:43;2.80;;;1.50;;
78856;SDS011;68207;50.078;19.936;2023-04-15T00:55:08;2.40;;;1.50;;
78856;SDS011;68207;50.078;19.936;2023-04-15T00:57:35;2.40;;;1.30;;
78856;SDS011;68207;50.078;19.936;2023-04-15T01:00:01;2.60;;;1.60;;
78856;SDS011;68207;50.078;19.936;2023-04-15T01:02:28;2.20;;;1.50;;
78856;SDS011;68207;50.078;19.936;2023-04-15T01:04:55;2.40;;;1.30;;
78856;SDS011;68207;50.078;19.936;2023-04-15T01:07:21;2.20;;;1.50;;
78856;SDS011;68207;50.078;19.936;2023-04-15T01:09:46;2.10;;;1.50;;
78856;SDS011;68207;50.078;19.936;2023-04-15T01:12:13;2.30;;;1.40;;
78856;SDS011;68207;50.078;19.936;2023-04-15T01:14:40;2.70;;;1.70;;
78856;SDS011;68207;50.078;19.936;2023-04-15T01:17:05;1.80;;;1.40;;
78856;SDS011;68207;50.078;19.936;2023-04-15T01:19:31;2.00;;;1.60;;
78856;SDS011;68207;50.078;19.936;2023-04-15T01:21:56;2.50;;;1.10;;
78856;SDS011;68207;50.078;19.936;2023-04-15T01:24:22;2.70;;;1.50;;
78856;SDS011;68207;50.078;19.936;2023-04-15T01:26:48;1.90;;;1.40;;
78856;SDS011;68207;50.078;19.936;2023-04-15T01:29:14;3.10;;;1.50;;
78856;SDS011;68207;50.078;19.936;2023-04-15T01:31:39;2.20;;;1.50;;
78856;SDS011;68207;50.078;19.936;2023-04-15T01:34:05;1.70;;;1.30;;
78856;SDS011;68207;50.078;19.936;2023-04-15T01:36:30;1.50;;;1.20;;
78856;SDS011;68207;50.078;19.936;2023-04-15T01:38:56;1.70;;;1.20;;
78856;SDS011;68207;50.078;19.936;2023-04-15T01:41:25;4.10;;;1.40;;
78856;SDS011;68207;50.078;19.936;2023-04-15T01:43:51;1.40;;;1.00;;
78856;SDS011;68207;50.078;19.936;2023-04-15T01:46:17;1.60;;;1.20;;
78856;SDS011;68207;50.078;19.936;2023-04-15T01:48:42;1.60;;;1.20;;
78856;SDS011;68207;50.078;19.936;2023-04-15T01:51:07;2.10;;;1.30;;
78856;SDS011;68207;50.078;19.936;2023-04-15T01:53:33;2.20;;;1.20;;
78856;SDS011;68207;50.078;19.936;2023-04-15T01:55:58;2.30;;;1.40;;
78856;SDS011;68207;50.078;19.936;2023-04-15T01:58:23;3.00;;;1.30;;
78856;SDS011;68207;50.078;19.936;2023-04-15T02:00:49;1.60;;;1.20;;
78856;SDS011;68207;50.078;19.936;2023-04-15T02:03:14;5.90;;;1.60;;
78856;SDS011;68207;50.078;19.936;2023-04-15T02:05:39;2.30;;;1.70;;
78856;SDS011;68207;50.078;19.936;2023-04-15T02:08:04;1.90;;;1.30;;
78856;SDS011;68207;50.078;19.936;2023-04-15T02:10:30;3.10;;;1.40;;
78856;SDS011;68207;50.078;19.936;2023-04-15T02:12:55;2.30;;;1.40;;
78856;SDS011;68207;50.078;19.936;2023-04-15T02:15:21;3.20;;;1.30;;
78856;SDS011;68207;50.078;19.936;2023-04-15T02:17:46;1.70;;;1.20;;
78856;SDS011;68207;50.078;19.936;2023-04-15T02:20:15;2.00;;;1.40;;
78856;SDS011;68207;50.078;19.936;2023-04-15T02:22:40;3.10;;;1.30;;
78856;SDS011;68207;50.078;19.936;2023-04-15T02:25:06;3.00;;;1.70;;
78856;SDS011;68207;50.078;19.936;2023-04-15T02:27:32;2.20;;;1.30;;
78856;SDS011;68207;50.078;19.936;2023-04-15T02:29:57;3.30;;;1.60;;
78856;SDS011;68207;50.078;19.936;2023-04-15T02:32:23;2.00;;;1.40;;
78856;SDS011;68207;50.078;19.936;2023-04-15T02:34:48;2.70;;;1.70;;
78856;SDS011;68207;50.078;19.936;2023-04-15T02:37:13;2.60;;;1.70;;
78856;SDS011;68207;50.078;19.936;2023-04-15T02:39:39;2.60;;;1.80;;
78856;SDS011;68207;50.078;19.936;2023-04-15T02:42:04;3.10;;;1.70;;
78856;SDS011;68207;50.078;19.936;2023-04-15T02:44:30;3.90;;;1.40;;
78856;SDS011;68207;50.078;19.936;2023-04-15T02:46:56;2.80;;;1.50;;
78856;SDS011;68207;50.078;19.936;2023-04-15T02:49:22;2.90;;;1.60;;
78856;SDS011;68207;50.078;19.936;2023-04-15T02:51:48;2.20;;;1.60;;
78856;SDS011;68207;50.078;19.936;2023-04-15T02:54:20;2.60;;;1.50;;
78856;SDS011;68207;50.078;19.936;2023-04-15T02:56:49;3.40;;;1.60;;
78856;SDS011;68207;50.078;19.936;2023-04-15T02:59:16;1.90;;;1.50;;
78856;SDS011;68207;50.078;19.936;2023-04-15T03:01:41;2.10;;;1.40;;
78856;SDS011;68207;50.078;19.936;2023-04-15T03:04:06;2.10;;;1.60;;
78856;SDS011;68207;50.078;19.936;2023-04-15T03:06:33;2.00;;;1.40;;
78856;SDS011;68207;50.078;19.936;2023-04-15T03:08:58;2.30;;;1.70;;
78856;SDS011;68207;50.078;19.936;2023-04-15T03:11:24;2.30;;;1.60;;
78856;SDS011;68207;50.078;19.936;2023-04-15T03:13:51;2.10;;;1.40;;
78856;SDS011;68207;50.078;19.936;2023-04-15T03:16:16;4.10;;;1.80;;
78856;SDS011;68207;50.078;19.936;2023-04-15T03:18:42;2.30;;;1.70;;
78856;SDS011;68207;50.078;19.936;2023-04-15T03:21:07;2.50;;;1.70;;
78856;SDS011;68207;50.078;19.936;2023-04-15T03:23:32;1.90;;;1.50;;
78856;SDS011;68207;50.078;19.936;2023-04-15T03:26:00;2.60;;;1.60;;
78856;SDS011;68207;50.078;19.936;2023-04-15T03:28:26;3.10;;;1.70;;
78856;SDS011;68207;50.078;19.936;2023-04-15T03:30:51;2.60;;;1.80;;
78856;SDS011;68207;50.078;19.936;2023-04-15T03:33:17;2.80;;;2.00;;
78856;SDS011;68207;50.078;19.936;2023-04-15T03:35:42;1.80;;;1.40;;
78856;SDS011;68207;50.078;19.936;2023-04-15T03:38:07;3.20;;;2.40;;
78856;SDS011;68207;50.078;19.936;2023-04-15T03:40:33;3.70;;;2.10;;
78856;SDS011;68207;50.078;19.936;2023-04-15T03:42:58;4.40;;;2.40;;
78856;SDS011;68207;50.078;19.936;2023-04-15T03:45:24;4.10;;;2.20;;
78856;SDS011;68207;50.078;19.936;2023-04-15T03:47:49;5.00;;;2.30;;
78856;SDS011;68207;50.078;19.936;2023-04-15T03:50:15;4.20;;;2.20;;
78856;SDS011;68207;50.078;19.936;2023-04-15T03:52:40;3.10;;;2.10;;
78856;SDS011;68207;50.078;19.936;2023-04-15T03:55:06;2.50;;;1.90;;
78856;SDS011;68207;50.078;19.936;2023-04-15T03:57:32;3.90;;;1.80;;
78856;SDS011;68207;50.078;19.936;2023-04-15T04:00:01;4.00;;;2.20;;
78856;SDS011;68207;50.078;19.936;2023-04-15T04:02:28;2.80;;;2.10;;
78856;SDS011;68207;50.078;19.936;2023-04-15T04:04:53;3.30;;;2.10;;
78856;SDS011;68207;50.078;19.936;2023-04-15T04:07:18;5.40;;;2.70;;
78856;SDS011;68207;50.078;19.936;2023-04-15T04:09:43;5.50;;;3.20;;
78856;SDS011;68207;50.078;19.936;2023-04-15T04:12:09;3.90;;;2.90;;
78856;SDS011;68207;50.078;19.936;2023-04-15T04:14:34;4.00;;;2.80;;
78856;SDS011;68207;50.078;19.936;2023-04-15T04:16:59;6.40;;;3.30;;
78856;SDS011;68207;50.078;19.936;2023-04-15T04:19:25;7.80;;;4.20;;
78856;SDS011;68207;50.078;19.936;2023-04-15T04:21:51;5.70;;;3.20;;
78856;SDS011;68207;50.078;19.936;2023-04-15T04:24:16;7.70;;;3.90;;
78856;SDS011;68207;50.078;19.936;2023-04-15T04:26:42;6.40;;;3.30;;
78856;SDS011;68207;50.078;19.936;2023-04-15T04:29:07;8.00;;;3.70;;
78856;SDS011;68207;50.078;19.936;2023-04-15T04:31:32;6.60;;;3.30;;
78856;SDS011;68207;50.078;19.936;2023-04-15T04:33:58;4.50;;;3.10;;
78856;SDS011;68207;50.078;19.936;2023-04-15T04:36:23;8.20;;;3.40;;
78856;SDS011;68207;50.078;19.936;2023-04-15T04:38:48;5.20;;;3.10;;
78856;SDS011;68207;50.078;19.936;2023-04-15T04:41:13;4.80;;;3.40;;
78856;SDS011;68207;50.078;19.936;2023-04-15T04:43:39;5.10;;;3.20;;
78856;SDS011;68207;50.078;19.936;2023-04-15T04:46:04;8.00;;;3.20;;
78856;SDS011;68207;50.078;19.936;2023-04-15T04:48:29;10.80;;;3.40;;
78856;SDS011;68207;50.078;19.936;2023-04-15T04:50:55;8.10;;;3.30;;
78856;SDS011;68207;50.078;19.936;2023-04-15T04:53:20;7.50;;;4.00;;
78856;SDS011;68207;50.078;19.936;2023-04-15T04:55:46;9.70;;;3.80;;
78856;SDS011;68207;50.078;19.936;2023-04-15T04:58:11;9.00;;;4.00;;
78856;SDS011;68207;50.078;19.936;2023-04-15T05:00:36;9.90;;;4.10;;
78856;SDS011;68207;50.078;19.936;2023-04-15T05:03:02;10.90;;;4.30;;
78856;SDS011;68207;50.078;19.936;2023-04-15T05:05:27;10.10;;;3.70;;
78856;SDS011;68207;50.078;19.936;2023-04-15T05:07:53;11.00;;;3.60;;
78856;SDS011;68207;50.078;19.936;2023-04-15T05:10:18;8.00;;;3.90;;
78856;SDS011;68207;50.078;19.936;2023-04-15T05:12:43;9.20;;;3.40;;
78856;SDS011;68207;50.078;19.936;2023-04-15T05:15:09;6.90;;;4.00;;
78856;SDS011;68207;50.078;19.936;2023-04-15T05:17:34;5.60;;;3.00;;
78856;SDS011;68207;50.078;19.936;2023-04-15T05:20:00;6.50;;;3.50;;
78856;SDS011;68207;50.078;19.936;2023-04-15T05:22:26;7.60;;;3.70;;
78856;SDS011;68207;50.078;19.936;2023-04-15T05:24:51;7.80;;;3.20;;
78856;SDS011;68207;50.078;19.936;2023-04-15T05:27:17;6.20;;;3.30;;
78856;SDS011;68207;50.078;19.936;2023-04-15T05:29:43;4.20;;;3.00;;
78856;SDS011;68207;50.078;19.936;2023-04-15T05:32:08;4.50;;;2.90;;
78856;SDS011;68207;50.078;19.936;2023-04-15T05:34:34;8.50;;;3.50;;
78856;SDS011;68207;50.078;19.936;2023-04-15T05:36:59;4.50;;;3.20;;
78856;SDS011;68207;50.078;19.936;2023-04-15T05:39:25;5.30;;;3.20;;
78856;SDS011;68207;50.078;19.936;2023-04-15T05:41:50;6.20;;;3.80;;
78856;SDS011;68207;50.078;19.936;2023-04-15T05:44:16;4.00;;;2.70;;
78856;SDS011;68207;50.078;19.936;2023-04-15T05:46:41;5.00;;;2.80;;
78856;SDS011;68207;50.078;19.936;2023-04-15T05:49:07;5.30;;;3.00;;
78856;SDS011;68207;50.078;19.936;2023-04-15T05:51:32;4.50;;;2.90;;
78856;SDS011;68207;50.078;19.936;2023-04-15T05:53:57;5.20;;;2.60;;
78856;SDS011;68207;50.078;19.936;2023-04-15T05:56:23;3.70;;;2.60;;
78856;SDS011;68207;50.078;19.936;2023-04-15T05:58:50;3.90;;;2.80;;
78856;SDS011;68207;50.078;19.936;2023-04-15T06:01:16;4.60;;;2.90;;
78856;SDS011;68207;50.078;19.936;2023-04-15T06:03:41;4.80;;;2.60;;
78856;SDS011;68207;50.078;19.936;2023-04-15T06:06:07;4.90;;;2.70;;
78856;SDS011;68207;50.078;19.936;2023-04-15T06:08:32;4.20;;;2.60;;
78856;SDS011;68207;50.078;19.936;2023-04-15T06:10:58;3.40;;;2.30;;
78856;SDS011;68207;50.078;19.936;2023-04-15T06:13:23;6.00;;;2.50;;
78856;SDS011;68207;50.078;19.936;2023-04-15T06:15:48;3.40;;;2.20;;
78856;SDS011;68207;50.078;19.936;2023-04-15T06:18:14;3.00;;;2.30;;
78856;SDS011;68207;50.078;19.936;2023-04-15T06:20:39;3.50;;;2.60;;
78856;SDS011;68207;50.078;19.936;2023-04-15T06:23:05;4.50;;;2.70;;
78856;SDS011;68207;50.078;19.936;2023-04-15T06:25:31;3.40;;;2.70;;
78856;SDS011;68207;50.078;19.936;2023-04-15T06:27:56;3.70;;;2.20;;
78856;SDS011;68207;50.078;19.936;2023-04-15T06:30:21;4.80;;;2.60;;
78856;SDS011;68207;50.078;19.936;2023-04-15T06:32:46;4.80;;;2.50;;
78856;SDS011;68207;50.078;19.936;2023-04-15T06:35:12;5.60;;;2.50;;
78856;SDS011;68207;50.078;19.936;2023-04-15T06:37:37;4.50;;;2.20;;
78856;SDS011;68207;50.078;19.936;2023-04-15T06:40:03;3.70;;;2.30;;
78856;SDS011;68207;50.078;19.936;2023-04-15T06:42:29;3.40;;;2.00;;
78856;SDS011;68207;50.078;19.936;2023-04-15T06:44:55;2.70;;;1.90;;
78856;SDS011;68207;50.078;19.936;2023-04-15T06:47:20;3.10;;;1.90;;
78856;SDS011;68207;50.078;19.936;2023-04-15T06:49:46;5.20;;;2.00;;
78856;SDS011;68207;50.078;19.936;2023-04-15T06:52:11;3.80;;;2.20;;
78856;SDS011;68207;50.078;19.936;2023-04-15T06:54:37;2.80;;;1.80;;
78856;SDS011;68207;50.078;19.936;2023-04-15T06:57:02;2.70;;;1.60;;
78856;SDS011;68207;50.078;19.936;2023-04-15T06:59:27;2.60;;;1.60;;
78856;SDS011;68207;50.078;19.936;2023-04-15T07:01:53;2.40;;;1.60;;
78856;SDS011;68207;50.078;19.936;2023-04-15T07:04:18;3.20;;;2.00;;
78856;SDS011;68207;50.078;19.936;2023-04-15T07:06:44;8.00;;;2.10;;
78856;SDS011;68207;50.078;19.936;2023-04-15T07:09:10;3.00;;;2.00;;
78856;SDS011;68207;50.078;19.936;2023-04-15T07:11:35;3.20;;;2.00;;
78856;SDS011;68207;50.078;19.936;2023-04-15T07:14:00;3.70;;;2.20;;
78856;SDS011;68207;50.078;19.936;2023-04-15T07:16:26;2.90;;;2.00;;
78856;SDS011;68207;50.078;19.936;2023-04-15T07:18:51;3.80;;;2.00;;
78856;SDS011;68207;50.078;19.936;2023-04-15T07:21:16;3.60;;;1.90;;
78856;SDS011;68207;50.078;19.936;2023-04-15T07:23:42;3.30;;;2.10;;
78856;SDS011;68207;50.078;19.936;2023-04-15T07:26:07;3.60;;;1.70;;
78856;SDS011;68207;50.078;19.936;2023-04-15T07:28:33;3.40;;;1.90;;
78856;SDS011;68207;50.078;19.936;2023-04-15T07:30:58;5.60;;;2.00;;
78856;SDS011;68207;50.078;19.936;2023-04-15T07:33:23;3.90;;;1.90;;
78856;SDS011;68207;50.078;19.936;2023-04-15T07:35:49;3.10;;;2.10;;
78856;SDS011;68207;50.078;19.936;2023-04-15T07:38:14;3.10;;;1.90;;
78856;SDS011;68207;50.078;19.936;2023-04-15T07:40:40;2.40;;;1.90;;
78856;SDS011;68207;50.078;19.936;2023-04-15T07:43:06;4.20;;;1.80;;
78856;SDS011;68207;50.078;19.936;2023-04-15T07:45:31;3.00;;;1.70;;
78856;SDS011;68207;50.078;19.936;2023-04-15T07:47:57;3.10;;;2.10;;
78856;SDS011;68207;50.078;19.936;2023-04-15T07:50:22;2.70;;;2.00;;
78856;SDS011;68207;50.078;19.936;2023-04-15T07:52:49;3.10;;;2.00;;
78856;SDS011;68207;50.078;19.936;2023-04-15T07:55:16;3.40;;;2.40;;
78856;SDS011;68207;50.078;19.936;2023-04-15T07:57:43;2.70;;;2.20;;
78856;SDS011;68207;50.078;19.936;2023-04-15T08:00:09;4.90;;;2.30;;
78856;SDS011;68207;50.078;19.936;2023-04-15T08:02:35;2.10;;;1.70;;
78856;SDS011;68207;50.078;19.936;2023-04-15T08:05:01;2.70;;;2.20;;
78856;SDS011;68207;50.078;19.936;2023-04-15T08:07:28;3.10;;;2.20;;
78856;SDS011;68207;50.078;19.936;2023-04-15T08:09:54;3.80;;;2.90;;
78856;SDS011;68207;50.078;19.936;2023-04-15T08:12:19;4.40;;;2.50;;
78856;SDS011;68207;50.078;19.936;2023-04-15T08:14:44;5.50;;;2.00;;
78856;SDS011;68207;50.078;19.936;2023-04-15T08:17:10;3.00;;;2.10;;
78856;SDS011;68207;50.078;19.936;2023-04-15T08:19:36;3.50;;;2.60;;
78856;SDS011;68207;50.078;19.936;2023-04-15T08:22:01;3.30;;;2.30;;
78856;SDS011;68207;50.078;19.936;2023-04-15T08:24:26;3.70;;;2.50;;
78856;SDS011;68207;50.078;19.936;2023-04-15T08:26:52;4.10;;;2.20;;
78856;SDS011;68207;50.078;19.936;2023-04-15T08:29:17;3.40;;;2.20;;
78856;SDS011;68207;50.078;19.936;2023-04-15T08:31:43;3.50;;;1.90;;
78856;SDS011;68207;50.078;19.936;2023-04-15T08:34:08;2.80;;;2.00;;
78856;SDS011;68207;50.078;19.936;2023-04-15T08:36:35;2.50;;;1.90;;
78856;SDS011;68207;50.078;19.936;2023-04-15T08:39:00;3.60;;;2.20;;
78856;SDS011;68207;50.078;19.936;2023-04-15T08:44:03;3.00;;;2.10;;
78856;SDS011;68207;50.078;19.936;2023-04-15T08:46:29;2.70;;;2.00;;
78856;SDS011;68207;50.078;19.936;2023-04-15T08:48:56;2.80;;;2.00;;
78856;SDS011;68207;50.078;19.936;2023-04-15T08:51:23;3.20;;;1.90;;
78856;SDS011;68207;50.078;19.936;2023-04-15T08:53:48;4.00;;;2.00;;
78856;SDS011;68207;50.078;19.936;2023-04-15T08:56:14;3.20;;;2.00;;
78856;SDS011;68207;50.078;19.936;2023-04-15T08:58:42;2.60;;;1.90;;
78856;SDS011;68207;50.078;19.936;2023-04-15T09:01:10;3.00;;;2.00;;
78856;SDS011;68207;50.078;19.936;2023-04-15T09:03:35;3.10;;;1.90;;
78856;SDS011;68207;50.078;19.936;2023-04-15T09:06:02;2.60;;;1.90;;
78856;SDS011;68207;50.078;19.936;2023-04-15T09:08:29;3.00;;;1.90;;
78856;SDS011;68207;50.078;19.936;2023-04-15T09:10:55;3.00;;;2.10;;
78856;SDS011;68207;50.078;19.936;2023-04-15T09:13:20;3.10;;;1.70;;
78856;SDS011;68207;50.078;19.936;2023-04-15T09:15:45;3.10;;;2.00;;
78856;SDS011;68207;50.078;19.936;2023-04-15T09:18:11;3.60;;;1.80;;
78856;SDS011;68207;50.078;19.936;2023-04-15T09:20:38;2.80;;;1.90;;
78856;SDS011;68207;50.078;19.936;2023-04-15T09:23:12;3.50;;;1.90;;
78856;SDS011;68207;50.078;19.936;2023-04-15T09:25:39;3.10;;;2.00;;
78856;SDS011;68207;50.078;19.936;2023-04-15T09:28:08;4.20;;;2.20;;
78856;SDS011;68207;50.078;19.936;2023-04-15T09:30:34;3.10;;;1.90;;
78856;SDS011;68207;50.078;19.936;2023-04-15T09:35:26;2.30;;;1.70;;
78856;SDS011;68207;50.078;19.936;2023-04-15T09:37:53;3.10;;;2.00;;
78856;SDS011;68207;50.078;19.936;2023-04-15T09:40:30;4.50;;;2.00;;
78856;SDS011;68207;50.078;19.936;2023-04-15T09:42:57;2.80;;;1.80;;
78856;SDS011;68207;50.078;19.936;2023-04-15T09:45:22;2.60;;;1.90;;
78856;SDS011;68207;50.078;19.936;2023-04-15T09:47:48;4.40;;;2.40;;
78856;SDS011;68207;50.078;19.936;2023-04-15T09:50:15;3.20;;;2.20;;
78856;SDS011;68207;50.078;19.936;2023-04-15T09:52:41;3.70;;;2.20;;
78856;SDS011;68207;50.078;19.936;2023-04-15T09:55:07;2.80;;;1.90;;
78856;SDS011;68207;50.078;19.936;2023-04-15T09:57:33;2.60;;;1.90;;
78856;SDS011;68207;50.078;19.936;2023-04-15T10:00:00;4.60;;;2.00;;
78856;SDS011;68207;50.078;19.936;2023-04-15T10:02:27;2.80;;;1.60;;
78856;SDS011;68207;50.078;19.936;2023-04-15T10:04:53;4.30;;;1.90;;
78856;SDS011;68207;50.078;19.936;2023-04-15T10:07:19;3.10;;;1.90;;
78856;SDS011;68207;50.078;19.936;2023-04-15T10:09:47;2.80;;;1.60;;
78856;SDS011;68207;50.078;19.936;2023-04-15T10:12:13;2.70;;;1.90;;
78856;SDS011;68207;50.078;19.936;2023-04-15T10:14:41;4.10;;;2.00;;
78856;SDS011;68207;50.078;19.936;2023-04-15T10:17:08;2.20;;;1.60;;
78856;SDS011;68207;50.078;19.936;2023-04-15T10:19:37;4.90;;;2.00;;
78856;SDS011;68207;50.078;19.936;2023-04-15T10:22:03;3.90;;;1.70;;
78856;SDS011;68207;50.078;19.936;2023-04-15T10:24:31;3.00;;;1.90;;
78856;SDS011;68207;50.078;19.936;2023-04-15T10:27:02;2.70;;;1.80;;
78856;SDS011;68207;50.078;19.936;2023-04-15T10:29:28;2.30;;;1.70;;
78856;SDS011;68207;50.078;19.936;2023-04-15T10:31:54;4.20;;;1.90;;
78856;SDS011;68207;50.078;19.936;2023-04-15T10:34:20;3.80;;;2.00;;
78856;SDS011;68207;50.078;19.936;2023-04-15T10:36:48;3.30;;;1.90;;
78856;SDS011;68207;50.078;19.936;2023-04-15T10:39:37;2.70;;;1.60;;
78856;SDS011;68207;50.078;19.936;2023-04-15T10:42:07;2.40;;;1.60;;
78856;SDS011;68207;50.078;19.936;2023-04-15T10:44:35;3.20;;;1.70;;
78856;SDS011;68207;50.078;19.936;2023-04-15T10:47:03;2.80;;;1.60;;
78856;SDS011;68207;50.078;19.936;2023-04-15T10:49:34;2.50;;;1.60;;
78856;SDS011;68207;50.078;19.936;2023-04-15T10:52:09;4.60;;;1.90;;
78856;SDS011;68207;50.078;19.936;2023-04-15T10:54:35;4.50;;;1.80;;
78856;SDS011;68207;50.078;19.936;2023-04-15T10:59:38;2.00;;;1.50;;
78856;SDS011;68207;50.078;19.936;2023-04-15T11:05:09;2.70;;;2.00;;
78856;SDS011;68207;50.078;19.936;2023-04-15T11:07:39;2.90;;;2.10;;
78856;SDS011;68207;50.078;19.936;2023-04-15T11:12:37;3.60;;;2.20;;
78856;SDS011;68207;50.078;19.936;2023-04-15T11:20:49;3.80;;;1.80;;
78856;SDS011;68207;50.078;19.936;2023-04-15T11:23:17;4.40;;;2.20;;
78856;SDS011;68207;50.078;19.936;2023-04-15T11:25:43;3.00;;;1.90;;
78856;SDS011;68207;50.078;19.936;2023-04-15T11:28:09;3.40;;;2.30;;
78856;SDS011;68207;50.078;19.936;2023-04-15T11:30:36;4.10;;;2.00;;
78856;SDS011;68207;50.078;19.936;2023-04-15T11:33:03;3.60;;;2.40;;
78856;SDS011;68207;50.078;19.936;2023-04-15T11:35:30;3.80;;;2.60;;
78856;SDS011;68207;50.078;19.936;2023-04-15T11:37:56;2.40;;;1.90;;
78856;SDS011;68207;50.078;19.936;2023-04-15T11:40:25;3.70;;;2.10;;
78856;SDS011;68207;50.078;19.936;2023-04-15T11:45:33;2.80;;;1.80;;
78856;SDS011;68207;50.078;19.936;2023-04-15T11:48:07;3.10;;;1.90;;
78856;SDS011;68207;50.078;19.936;2023-04-15T11:50:34;2.60;;;2.00;;
78856;SDS011;68207;50.078;19.936;2023-04-15T11:53:01;3.10;;;1.90;;
78856;SDS011;68207;50.078;19.936;2023-04-15T11:55:28;2.80;;;1.90;;
78856;SDS011;68207;50.078;19.936;2023-04-15T12:03:18;3.60;;;2.30;;
78856;SDS011;68207;50.078;19.936;2023-04-15T12:16:29;3.20;;;2.10;;
78856;SDS011;68207;50.078;19.936;2023-04-15T12:18:56;2.90;;;2.10;;
78856;SDS011;68207;50.078;19.936;2023-04-15T12:21:27;4.40;;;2.30;;
78856;SDS011;68207;50.078;19.936;2023-04-15T12:24:00;2.70;;;1.90;;
78856;SDS011;68207;50.078;19.936;2023-04-15T12:26:47;3.30;;;1.80;;
78856;SDS011;68207;50.078;19.936;2023-04-15T12:29:14;3.20;;;1.80;;
78856;SDS011;68207;50.078;19.936;2023-04-15T12:31:51;2.80;;;1.90;;
78856;SDS011;68207;50.078;19.936;2023-04-15T12:34:24;3.60;;;1.80;;
78856;SDS011;68207;50.078;19.936;2023-04-15T12:36:52;3.10;;;1.90;;
78856;SDS011;68207;50.078;19.936;2023-04-15T12:41:45;3.80;;;1.60;;
78856;SDS011;68207;50.078;19.936;2023-04-15T12:44:11;2.50;;;1.70;;
78856;SDS011;68207;50.078;19.936;2023-04-15T12:46:36;2.10;;;1.50;;
78856;SDS011;68207;50.078;19.936;2023-04-15T12:49:02;2.80;;;2.00;;
78856;SDS011;68207;50.078;19.936;2023-04-15T12:51:27;2.90;;;2.00;;
78856;SDS011;68207;50.078;19.936;2023-04-15T12:53:53;3.80;;;2.20;;
78856;SDS011;68207;50.078;19.936;2023-04-15T12:56:18;2.80;;;2.00;;
78856;SDS011;68207;50.078;19.936;2023-04-15T12:58:43;2.80;;;1.90;;
78856;SDS011;68207;50.078;19.936;2023-04-15T13:01:09;3.00;;;1.90;;
78856;SDS011;68207;50.078;19.936;2023-04-15T13:06:00;2.90;;;2.00;;
78856;SDS011;68207;50.078;19.936;2023-04-15T13:08:26;3.20;;;2.30;;
78856;SDS011;68207;50.078;19.936;2023-04-15T13:10:51;3.50;;;1.90;;
78856;SDS011;68207;50.078;19.936;2023-04-15T13:13:17;3.40;;;2.10;;
78856;SDS011;68207;50.078;19.936;2023-04-15T13:15:42;4.30;;;2.30;;
78856;SDS011;68207;50.078;19.936;2023-04-15T13:18:10;3.30;;;2.30;;
78856;SDS011;68207;50.078;19.936;2023-04-15T13:20:35;3.30;;;2.40;;
78856;SDS011;68207;50.078;19.936;2023-04-15T13:23:00;5.90;;;2.50;;
78856;SDS011;68207;50.078;19.936;2023-04-15T13:25:26;3.70;;;1.80;;
78856;SDS011;68207;50.078;19.936;2023-04-15T13:27:51;3.00;;;1.90;;
78856;SDS011;68207;50.078;19.936;2023-04-15T13:30:17;2.60;;;1.70;;
78856;SDS011;68207;50.078;19.936;2023-04-15T13:32:42;3.40;;;2.00;;
78856;SDS011;68207;50.078;19.936;2023-04-15T13:35:07;2.80;;;1.90;;
78856;SDS011;68207;50.078;19.936;2023-04-15T13:37:33;3.10;;;1.70;;
78856;SDS011;68207;50.078;19.936;2023-04-15T13:39:58;3.10;;;2.00;;
78856;SDS011;68207;50.078;19.936;2023-04-15T13:42:23;2.60;;;1.80;;
78856;SDS011;68207;50.078;19.936;2023-04-15T13:44:49;3.70;;;2.00;;
78856;SDS011;68207;50.078;19.936;2023-04-15T13:47:18;3.00;;;2.00;;
78856;SDS011;68207;50.078;19.936;2023-04-15T13:49:44;2.80;;;1.80;;
78856;SDS011;68207;50.078;19.936;2023-04-15T13:52:10;2.50;;;1.90;;
78856;SDS011;68207;50.078;19.936;2023-04-15T13:54:36;3.10;;;1.70;;
78856;SDS011;68207;50.078;19.936;2023-04-15T13:57:01;3.10;;;2.00;;
78856;SDS011;68207;50.078;19.936;2023-04-15T13:59:26;3.80;;;1.90;;
78856;SDS011;68207;50.078;19.936;2023-04-15T14:01:52;3.30;;;1.90;;
78856;SDS011;68207;50.078;19.936;2023-04-15T14:04:17;2.30;;;1.80;;
78856;SDS011;68207;50.078;19.936;2023-04-15T14:06:42;4.00;;;1.80;;
78856;SDS011;68207;50.078;19.936;2023-04-15T14:09:08;2.50;;;1.60;;
78856;SDS011;68207;50.078;19.936;2023-04-15T14:11:34;2.70;;;1.80;;
78856;SDS011;68207;50.078;19.936;2023-04-15T14:14:00;2.50;;;1.80;;
78856;SDS011;68207;50.078;19.936;2023-04-15T14:16:26;2.50;;;1.90;;
78856;SDS011;68207;50.078;19.936;2023-04-15T14:18:51;2.70;;;1.80;;
78856;SDS011;68207;50.078;19.936;2023-04-15T14:21:17;3.90;;;1.80;;
78856;SDS011;68207;50.078;19.936;2023-04-15T14:23:42;3.50;;;1.90;;
78856;SDS011;68207;50.078;19.936;2023-04-15T14:26:08;5.20;;;1.90;;
78856;SDS011;68207;50.078;19.936;2023-04-15T14:28:33;3.90;;;1.80;;
78856;SDS011;68207;50.078;19.936;2023-04-15T14:30:58;2.50;;;1.90;;
78856;SDS011;68207;50.078;19.936;2023-04-15T14:33:24;2.50;;;1.80;;
78856;SDS011;68207;50.078;19.936;2023-04-15T14:35:50;2.90;;;1.80;;
78856;SDS011;68207;50.078;19.936;2023-04-15T14:38:15;3.60;;;2.10;;
78856;SDS011;68207;50.078;19.936;2023-04-15T14:40:40;2.90;;;1.90;;
78856;SDS011;68207;50.078;19.936;2023-04-15T14:43:06;3.10;;;2.10;;
78856;SDS011;68207;50.078;19.936;2023-04-15T14:45:31;3.80;;;2.10;;
78856;SDS011;68207;50.078;19.936;2023-04-15T14:47:57;2.80;;;2.10;;
78856;SDS011;68207;50.078;19.936;2023-04-15T14:50:23;3.40;;;2.50;;
78856;SDS011;68207;50.078;19.936;2023-04-15T14:52:48;3.30;;;2.00;;
78856;SDS011;68207;50.078;19.936;2023-04-15T14:55:13;3.20;;;2.20;;
78856;SDS011;68207;50.078;19.936;2023-04-15T14:57:39;2.90;;;2.30;;
78856;SDS011;68207;50.078;19.936;2023-04-15T15:00:06;4.00;;;2.40;;
78856;SDS011;68207;50.078;19.936;2023-04-15T15:02:33;5.40;;;2.70;;
78856;SDS011;68207;50.078;19.936;2023-04-15T15:05:00;3.70;;;2.60;;
78856;SDS011;68207;50.078;19.936;2023-04-15T15:07:25;3.20;;;2.40;;
78856;SDS011;68207;50.078;19.936;2023-04-15T15:09:51;2.80;;;2.50;;